sensor_id;sensor_type;location;lat;lon;timestamp;P1;durP1;ratioP1;P2;durP2;ratioP2
15408;SDS011;7803;48.130;13.788;2024-02-21T00:02:38;2.67;;;2.00;;
15408;SDS011;7803;48.130;13.788;2024-02-21T00:05:40;2.03;;;1.83;;
15408;SDS011;7803;48.130;13.788;2024-02-21T00:08:42;2.22;;;1.85;;
15408;SDS011;7803;48.130;13.788;2024-02-21T00:11:44;2.92;;;2.05;;
15408;SDS011;7803;48.130;13.788;2024-02-21T00:14:46;2.97;;;2.08;;
15408;SDS011;7803;48.130;13.788;2024-02-21T00:17:49;2.42;;;1.85;;
15408;SDS011;7803;48.130;13.788;2024-02-21T00:20:51;2.17;;;1.88;;
15408;SDS011;7803;48.130;13.788;2024-02-21T00:23:53;2.67;;;2.00;;
15408;SDS011;7803;48.130;13.788;2024-02-21T00:26:55;2.47;;;2.05;;
15408;SDS011;7803;48.130;13.788;2024-02-21T00:29:57;2.15;;;1.65;;
15408;SDS011;7803;48.130;13.788;2024-02-21T00:33:01;2.17;;;1.98;;
15408;SDS011;7803;48.130;13.788;2024-02-21T00:36:03;1.90;;;1.70;;
15408;SDS011;7803;48.130;13.788;2024-02-21T00:39:05;3.13;;;2.10;;
15408;SDS011;7803;48.130;13.788;2024-02-21T00:42:07;2.90;;;2.10;;
15408;SDS011;7803;48.130;13.788;2024-02-21T00:45:09;1.90;;;1.67;;
15408;SDS011;7803;48.130;13.788;2024-02-21T00:48:13;1.83;;;1.70;;
15408;SDS011;7803;48.130;13.788;2024-02-21T00:51:15;2.03;;;1.83;;
15408;SDS011;7803;48.130;13.788;2024-02-21T00:54:17;2.10;;;1.75;;
15408;SDS011;7803;48.130;13.788;2024-02-21T00:57:19;2.38;;;1.80;;
15408;SDS011;7803;48.130;13.788;2024-02-21T01:00:21;2.05;;;1.80;;
15408;SDS011;7803;48.130;13.788;2024-02-21T01:03:24;2.00;;;1.80;;
15408;SDS011;7803;48.130;13.788;2024-02-21T01:06:26;3.00;;;2.15;;
15408;SDS011;7803;48.130;13.788;2024-02-21T01:09:28;2.35;;;1.73;;
15408;SDS011;7803;48.130;13.788;2024-02-21T01:12:30;2.88;;;2.10;;
15408;SDS011;7803;48.130;13.788;2024-02-21T01:15:32;2.15;;;1.67;;
15408;SDS011;7803;48.130;13.788;2024-02-21T01:18:36;2.47;;;1.85;;
15408;SDS011;7803;48.130;13.788;2024-02-21T01:21:39;2.75;;;1.80;;
15408;SDS011;7803;48.130;13.788;2024-02-21T01:24:41;2.78;;;1.77;;
15408;SDS011;7803;48.130;13.788;2024-02-21T01:27:43;1.77;;;1.52;;
15408;SDS011;7803;48.130;13.788;2024-02-21T01:30:45;1.88;;;1.70;;
15408;SDS011;7803;48.130;13.788;2024-02-21T01:33:48;2.33;;;1.63;;
15408;SDS011;7803;48.130;13.788;2024-02-21T01:36:50;2.47;;;1.80;;
15408;SDS011;7803;48.130;13.788;2024-02-21T01:39:52;2.10;;;1.80;;
15408;SDS011;7803;48.130;13.788;2024-02-21T01:42:55;2.28;;;1.80;;
15408;SDS011;7803;48.130;13.788;2024-02-21T01:45:57;2.25;;;1.73;;
15408;SDS011;7803;48.130;13.788;2024-02-21T01:49:01;2.28;;;1.65;;
15408;SDS011;7803;48.130;13.788;2024-02-21T01:52:04;1.67;;;1.58;;
15408;SDS011;7803;48.130;13.788;2024-02-21T01:55:06;2.33;;;1.88;;
15408;SDS011;7803;48.130;13.788;2024-02-21T01:58:13;1.67;;;1.42;;
15408;SDS011;7803;48.130;13.788;2024-02-21T02:01:16;2.10;;;1.60;;
15408;SDS011;7803;48.130;13.788;2024-02-21T02:04:20;2.33;;;1.88;;
15408;SDS011;7803;48.130;13.788;2024-02-21T02:07:22;2.35;;;1.60;;
15408;SDS011;7803;48.130;13.788;2024-02-21T02:10:24;2.00;;;1.48;;
15408;SDS011;7803;48.130;13.788;2024-02-21T02:13:27;2.25;;;1.70;;
15408;SDS011;7803;48.130;13.788;2024-02-21T02:16:29;1.90;;;1.45;;
15408;SDS011;7803;48.130;13.788;2024-02-21T02:19:32;2.22;;;1.75;;
15408;SDS011;7803;48.130;13.788;2024-02-21T02:22:35;1.88;;;1.55;;
15408;SDS011;7803;48.130;13.788;2024-02-21T02:25:41;2.08;;;1.80;;
15408;SDS011;7803;48.130;13.788;2024-02-21T02:28:43;2.38;;;1.80;;
15408;SDS011;7803;48.130;13.788;2024-02-21T02:31:45;2.13;;;1.85;;
15408;SDS011;7803;48.130;13.788;2024-02-21T02:34:47;2.50;;;1.90;;
15408;SDS011;7803;48.130;13.788;2024-02-21T02:37:49;3.08;;;2.25;;
15408;SDS011;7803;48.130;13.788;2024-02-21T02:40:53;2.35;;;1.95;;
15408;SDS011;7803;48.130;13.788;2024-02-21T02:43:55;2.33;;;2.08;;
15408;SDS011;7803;48.130;13.788;2024-02-21T02:46:57;2.55;;;2.17;;
15408;SDS011;7803;48.130;13.788;2024-02-21T02:49:59;2.75;;;2.30;;
15408;SDS011;7803;48.130;13.788;2024-02-21T02:53:01;2.65;;;2.10;;
15408;SDS011;7803;48.130;13.788;2024-02-21T02:56:05;2.70;;;2.40;;
15408;SDS011;7803;48.130;13.788;2024-02-21T02:59:07;2.95;;;2.55;;
15408;SDS011;7803;48.130;13.788;2024-02-21T03:02:09;3.95;;;3.00;;
15408;SDS011;7803;48.130;13.788;2024-02-21T03:05:12;4.07;;;3.20;;
15408;SDS011;7803;48.130;13.788;2024-02-21T03:08:15;3.65;;;2.88;;
15408;SDS011;7803;48.130;13.788;2024-02-21T03:11:19;3.17;;;2.83;;
15408;SDS011;7803;48.130;13.788;2024-02-21T03:14:21;3.40;;;3.10;;
15408;SDS011;7803;48.130;13.788;2024-02-21T03:17:23;4.15;;;3.17;;
15408;SDS011;7803;48.130;13.788;2024-02-21T03:20:27;4.20;;;3.60;;
15408;SDS011;7803;48.130;13.788;2024-02-21T03:23:29;3.78;;;3.28;;
15408;SDS011;7803;48.130;13.788;2024-02-21T03:26:32;4.43;;;3.88;;
15408;SDS011;7803;48.130;13.788;2024-02-21T03:29:34;4.82;;;3.97;;
15408;SDS011;7803;48.130;13.788;2024-02-21T03:32:36;4.25;;;3.85;;
15408;SDS011;7803;48.130;13.788;2024-02-21T03:35:39;4.30;;;3.83;;
15408;SDS011;7803;48.130;13.788;2024-02-21T03:38:41;4.93;;;4.03;;
15408;SDS011;7803;48.130;13.788;2024-02-21T03:41:44;5.03;;;4.38;;
15408;SDS011;7803;48.130;13.788;2024-02-21T03:44:46;4.50;;;4.10;;
15408;SDS011;7803;48.130;13.788;2024-02-21T03:47:48;5.90;;;4.43;;
15408;SDS011;7803;48.130;13.788;2024-02-21T03:50:51;5.32;;;4.25;;
15408;SDS011;7803;48.130;13.788;2024-02-21T03:53:53;5.07;;;4.50;;
15408;SDS011;7803;48.130;13.788;2024-02-21T03:56:57;5.53;;;4.75;;
15408;SDS011;7803;48.130;13.788;2024-02-21T03:59:59;5.40;;;4.90;;
15408;SDS011;7803;48.130;13.788;2024-02-21T04:03:01;4.95;;;4.45;;
15408;SDS011;7803;48.130;13.788;2024-02-21T04:06:03;5.40;;;4.75;;
15408;SDS011;7803;48.130;13.788;2024-02-21T04:09:05;5.78;;;5.10;;
15408;SDS011;7803;48.130;13.788;2024-02-21T04:12:09;5.85;;;4.80;;
15408;SDS011;7803;48.130;13.788;2024-02-21T04:15:11;5.80;;;4.90;;
15408;SDS011;7803;48.130;13.788;2024-02-21T04:18:13;5.68;;;4.78;;
15408;SDS011;7803;48.130;13.788;2024-02-21T04:21:16;5.28;;;4.78;;
15408;SDS011;7803;48.130;13.788;2024-02-21T04:24:18;5.63;;;5.03;;
15408;SDS011;7803;48.130;13.788;2024-02-21T04:27:22;5.32;;;4.82;;
15408;SDS011;7803;48.130;13.788;2024-02-21T04:30:24;5.72;;;5.13;;
15408;SDS011;7803;48.130;13.788;2024-02-21T04:33:26;5.38;;;4.57;;
15408;SDS011;7803;48.130;13.788;2024-02-21T04:36:28;5.72;;;5.00;;
15408;SDS011;7803;48.130;13.788;2024-02-21T04:39:30;6.20;;;5.10;;
15408;SDS011;7803;48.130;13.788;2024-02-21T04:42:33;5.45;;;4.95;;
15408;SDS011;7803;48.130;13.788;2024-02-21T04:45:35;5.47;;;4.88;;
15408;SDS011;7803;48.130;13.788;2024-02-21T04:48:37;5.25;;;4.75;;
15408;SDS011;7803;48.130;13.788;2024-02-21T04:51:39;5.90;;;4.90;;
15408;SDS011;7803;48.130;13.788;2024-02-21T04:54:42;5.35;;;4.70;;
15408;SDS011;7803;48.130;13.788;2024-02-21T04:57:45;5.18;;;4.57;;
15408;SDS011;7803;48.130;13.788;2024-02-21T05:00:47;5.60;;;4.88;;
15408;SDS011;7803;48.130;13.788;2024-02-21T05:03:49;5.43;;;4.40;;
15408;SDS011;7803;48.130;13.788;2024-02-21T05:06:51;5.50;;;4.60;;
15408;SDS011;7803;48.130;13.788;2024-02-21T05:09:53;5.45;;;4.75;;
15408;SDS011;7803;48.130;13.788;2024-02-21T05:12:57;5.40;;;4.68;;
15408;SDS011;7803;48.130;13.788;2024-02-21T05:15:59;4.72;;;4.15;;
15408;SDS011;7803;48.130;13.788;2024-02-21T05:19:03;5.55;;;4.53;;
15408;SDS011;7803;48.130;13.788;2024-02-21T05:22:05;4.97;;;4.47;;
15408;SDS011;7803;48.130;13.788;2024-02-21T05:25:07;5.13;;;4.40;;
15408;SDS011;7803;48.130;13.788;2024-02-21T05:28:10;6.10;;;4.45;;
15408;SDS011;7803;48.130;13.788;2024-02-21T05:31:12;5.20;;;4.70;;
15408;SDS011;7803;48.130;13.788;2024-02-21T05:34:15;4.65;;;4.15;;
15408;SDS011;7803;48.130;13.788;2024-02-21T05:37:17;4.93;;;4.30;;
15408;SDS011;7803;48.130;13.788;2024-02-21T05:40:19;4.78;;;4.28;;
15408;SDS011;7803;48.130;13.788;2024-02-21T05:43:23;4.85;;;4.35;;
15408;SDS011;7803;48.130;13.788;2024-02-21T05:46:24;4.68;;;4.10;;
15408;SDS011;7803;48.130;13.788;2024-02-21T05:49:26;4.40;;;4.00;;
15408;SDS011;7803;48.130;13.788;2024-02-21T05:52:28;4.53;;;4.03;;
15408;SDS011;7803;48.130;13.788;2024-02-21T05:55:30;4.38;;;3.78;;
15408;SDS011;7803;48.130;13.788;2024-02-21T05:58:34;4.45;;;4.05;;
15408;SDS011;7803;48.130;13.788;2024-02-21T06:01:36;4.85;;;4.30;;
15408;SDS011;7803;48.130;13.788;2024-02-21T06:04:38;4.25;;;3.80;;
15408;SDS011;7803;48.130;13.788;2024-02-21T06:07:40;4.85;;;4.07;;
15408;SDS011;7803;48.130;13.788;2024-02-21T06:10:42;4.65;;;3.83;;
15408;SDS011;7803;48.130;13.788;2024-02-21T06:13:45;5.03;;;3.92;;
15408;SDS011;7803;48.130;13.788;2024-02-21T06:16:47;4.45;;;3.92;;
15408;SDS011;7803;48.130;13.788;2024-02-21T06:19:49;4.30;;;3.90;;
15408;SDS011;7803;48.130;13.788;2024-02-21T06:22:51;4.30;;;3.90;;
15408;SDS011;7803;48.130;13.788;2024-02-21T06:25:53;3.80;;;3.40;;
15408;SDS011;7803;48.130;13.788;2024-02-21T06:28:56;4.53;;;3.90;;
15408;SDS011;7803;48.130;13.788;2024-02-21T06:31:59;3.92;;;3.50;;
15408;SDS011;7803;48.130;13.788;2024-02-21T06:35:02;4.57;;;3.53;;
15408;SDS011;7803;48.130;13.788;2024-02-21T06:38:04;4.07;;;3.58;;
15408;SDS011;7803;48.130;13.788;2024-02-21T06:41:06;3.50;;;3.20;;
15408;SDS011;7803;48.130;13.788;2024-02-21T06:44:16;4.20;;;3.53;;
15408;SDS011;7803;48.130;13.788;2024-02-21T06:47:18;3.83;;;3.42;;
15408;SDS011;7803;48.130;13.788;2024-02-21T06:50:21;4.22;;;3.70;;
15408;SDS011;7803;48.130;13.788;2024-02-21T06:53:23;3.83;;;3.15;;
15408;SDS011;7803;48.130;13.788;2024-02-21T06:56:25;4.05;;;3.47;;
15408;SDS011;7803;48.130;13.788;2024-02-21T06:59:30;3.78;;;3.38;;
15408;SDS011;7803;48.130;13.788;2024-02-21T07:02:32;3.92;;;3.22;;
15408;SDS011;7803;48.130;13.788;2024-02-21T07:05:34;4.65;;;3.78;;
15408;SDS011;7803;48.130;13.788;2024-02-21T07:08:36;3.63;;;3.22;;
15408;SDS011;7803;48.130;13.788;2024-02-21T07:11:39;3.90;;;3.38;;
15408;SDS011;7803;48.130;13.788;2024-02-21T07:14:42;3.75;;;3.40;;
15408;SDS011;7803;48.130;13.788;2024-02-21T07:17:44;3.50;;;3.20;;
15408;SDS011;7803;48.130;13.788;2024-02-21T07:20:46;3.42;;;3.10;;
15408;SDS011;7803;48.130;13.788;2024-02-21T07:23:48;3.22;;;2.90;;
15408;SDS011;7803;48.130;13.788;2024-02-21T07:26:50;3.20;;;2.70;;
15408;SDS011;7803;48.130;13.788;2024-02-21T07:29:53;3.90;;;3.20;;
15408;SDS011;7803;48.130;13.788;2024-02-21T07:32:55;3.28;;;2.83;;
15408;SDS011;7803;48.130;13.788;2024-02-21T07:35:57;3.42;;;3.13;;
15408;SDS011;7803;48.130;13.788;2024-02-21T07:38:59;3.55;;;3.22;;
15408;SDS011;7803;48.130;13.788;2024-02-21T07:42:01;3.33;;;2.78;;
15408;SDS011;7803;48.130;13.788;2024-02-21T07:45:05;3.30;;;3.00;;
15408;SDS011;7803;48.130;13.788;2024-02-21T07:48:07;3.53;;;2.75;;
15408;SDS011;7803;48.130;13.788;2024-02-21T07:51:09;3.30;;;3.00;;
15408;SDS011;7803;48.130;13.788;2024-02-21T07:54:11;3.35;;;2.70;;
15408;SDS011;7803;48.130;13.788;2024-02-21T07:57:13;4.07;;;3.15;;
15408;SDS011;7803;48.130;13.788;2024-02-21T08:00:17;3.22;;;2.80;;
15408;SDS011;7803;48.130;13.788;2024-02-21T08:03:21;3.17;;;2.60;;
15408;SDS011;7803;48.130;13.788;2024-02-21T08:06:23;3.40;;;2.80;;
15408;SDS011;7803;48.130;13.788;2024-02-21T08:09:25;3.53;;;2.90;;
15408;SDS011;7803;48.130;13.788;2024-02-21T08:12:27;3.42;;;2.90;;
15408;SDS011;7803;48.130;13.788;2024-02-21T08:15:30;3.10;;;2.80;;
15408;SDS011;7803;48.130;13.788;2024-02-21T08:18:33;3.05;;;2.70;;
15408;SDS011;7803;48.130;13.788;2024-02-21T08:21:36;2.97;;;2.67;;
15408;SDS011;7803;48.130;13.788;2024-02-21T08:24:38;3.78;;;2.92;;
15408;SDS011;7803;48.130;13.788;2024-02-21T08:27:40;3.38;;;2.70;;
15408;SDS011;7803;48.130;13.788;2024-02-21T08:30:44;3.67;;;2.90;;
15408;SDS011;7803;48.130;13.788;2024-02-21T08:33:48;3.83;;;2.42;;
15408;SDS011;7803;48.130;13.788;2024-02-21T08:36:50;3.17;;;2.60;;
15408;SDS011;7803;48.130;13.788;2024-02-21T08:39:52;3.10;;;2.60;;
15408;SDS011;7803;48.130;13.788;2024-02-21T08:42:54;2.97;;;2.50;;
15408;SDS011;7803;48.130;13.788;2024-02-21T08:45:57;3.53;;;2.85;;
15408;SDS011;7803;48.130;13.788;2024-02-21T08:48:59;2.88;;;2.58;;
15408;SDS011;7803;48.130;13.788;2024-02-21T08:52:01;2.90;;;2.50;;
15408;SDS011;7803;48.130;13.788;2024-02-21T08:55:03;4.20;;;2.97;;
15408;SDS011;7803;48.130;13.788;2024-02-21T08:58:06;3.88;;;2.70;;
15408;SDS011;7803;48.130;13.788;2024-02-21T09:01:09;3.20;;;2.60;;
15408;SDS011;7803;48.130;13.788;2024-02-21T09:04:11;2.83;;;2.45;;
15408;SDS011;7803;48.130;13.788;2024-02-21T09:07:13;3.10;;;2.60;;
15408;SDS011;7803;48.130;13.788;2024-02-21T09:10:15;3.03;;;2.30;;
15408;SDS011;7803;48.130;13.788;2024-02-21T09:13:17;2.95;;;2.40;;
15408;SDS011;7803;48.130;13.788;2024-02-21T09:16:21;2.90;;;2.33;;
15408;SDS011;7803;48.130;13.788;2024-02-21T09:19:23;2.70;;;2.42;;
15408;SDS011;7803;48.130;13.788;2024-02-21T09:22:25;2.53;;;2.13;;
15408;SDS011;7803;48.130;13.788;2024-02-21T09:25:27;3.28;;;2.47;;
15408;SDS011;7803;48.130;13.788;2024-02-21T09:28:30;2.65;;;2.22;;
15408;SDS011;7803;48.130;13.788;2024-02-21T09:31:35;2.65;;;2.30;;
15408;SDS011;7803;48.130;13.788;2024-02-21T09:34:38;2.67;;;2.20;;
15408;SDS011;7803;48.130;13.788;2024-02-21T09:37:41;2.35;;;2.08;;
15408;SDS011;7803;48.130;13.788;2024-02-21T09:40:42;2.40;;;2.00;;
15408;SDS011;7803;48.130;13.788;2024-02-21T09:43:44;2.80;;;2.38;;
15408;SDS011;7803;48.130;13.788;2024-02-21T09:46:50;2.80;;;2.13;;
15408;SDS011;7803;48.130;13.788;2024-02-21T09:49:57;2.58;;;2.17;;
15408;SDS011;7803;48.130;13.788;2024-02-21T09:53:01;2.65;;;2.05;;
15408;SDS011;7803;48.130;13.788;2024-02-21T09:56:07;2.85;;;2.03;;
15408;SDS011;7803;48.130;13.788;2024-02-21T09:59:10;3.25;;;2.35;;
15408;SDS011;7803;48.130;13.788;2024-02-21T10:02:13;2.75;;;2.30;;
15408;SDS011;7803;48.130;13.788;2024-02-21T10:05:15;2.75;;;2.20;;
15408;SDS011;7803;48.130;13.788;2024-02-21T10:08:18;2.65;;;2.15;;
15408;SDS011;7803;48.130;13.788;2024-02-21T10:11:24;2.72;;;1.98;;
15408;SDS011;7803;48.130;13.788;2024-02-21T10:14:27;2.60;;;2.00;;
15408;SDS011;7803;48.130;13.788;2024-02-21T10:17:30;2.47;;;2.10;;
15408;SDS011;7803;48.130;13.788;2024-02-21T10:20:33;2.45;;;1.98;;
15408;SDS011;7803;48.130;13.788;2024-02-21T10:23:41;2.42;;;2.08;;
15408;SDS011;7803;48.130;13.788;2024-02-21T10:26:44;2.42;;;1.95;;
15408;SDS011;7803;48.130;13.788;2024-02-21T10:29:49;2.92;;;2.20;;
15408;SDS011;7803;48.130;13.788;2024-02-21T10:32:53;3.00;;;2.13;;
15408;SDS011;7803;48.130;13.788;2024-02-21T10:36:05;2.72;;;2.10;;
15408;SDS011;7803;48.130;13.788;2024-02-21T10:39:09;3.05;;;2.08;;
15408;SDS011;7803;48.130;13.788;2024-02-21T10:42:11;2.63;;;2.08;;
15408;SDS011;7803;48.130;13.788;2024-02-21T10:45:13;2.35;;;1.98;;
15408;SDS011;7803;48.130;13.788;2024-02-21T10:48:18;2.08;;;1.77;;
15408;SDS011;7803;48.130;13.788;2024-02-21T10:51:26;2.55;;;2.08;;
15408;SDS011;7803;48.130;13.788;2024-02-21T10:54:39;2.47;;;1.70;;
15408;SDS011;7803;48.130;13.788;2024-02-21T10:57:46;2.22;;;1.75;;
15408;SDS011;7803;48.130;13.788;2024-02-21T11:00:48;2.33;;;1.98;;
15408;SDS011;7803;48.130;13.788;2024-02-21T11:03:53;2.38;;;1.90;;
15408;SDS011;7803;48.130;13.788;2024-02-21T11:06:57;2.30;;;1.85;;
15408;SDS011;7803;48.130;13.788;2024-02-21T11:10:00;2.22;;;1.70;;
15408;SDS011;7803;48.130;13.788;2024-02-21T11:13:07;2.05;;;1.70;;
15408;SDS011;7803;48.130;13.788;2024-02-21T11:16:09;2.13;;;1.73;;
15408;SDS011;7803;48.130;13.788;2024-02-21T11:19:20;3.05;;;2.00;;
15408;SDS011;7803;48.130;13.788;2024-02-21T11:22:23;2.20;;;1.70;;
15408;SDS011;7803;48.130;13.788;2024-02-21T11:25:29;2.53;;;2.00;;
15408;SDS011;7803;48.130;13.788;2024-02-21T11:28:33;2.60;;;1.85;;
15408;SDS011;7803;48.130;13.788;2024-02-21T11:31:39;2.95;;;1.83;;
15408;SDS011;7803;48.130;13.788;2024-02-21T11:34:53;2.13;;;1.70;;
15408;SDS011;7803;48.130;13.788;2024-02-21T11:37:56;2.88;;;1.90;;
15408;SDS011;7803;48.130;13.788;2024-02-21T11:41:08;1.85;;;1.65;;
15408;SDS011;7803;48.130;13.788;2024-02-21T11:44:10;1.92;;;1.73;;
15408;SDS011;7803;48.130;13.788;2024-02-21T11:47:13;2.00;;;1.73;;
15408;SDS011;7803;48.130;13.788;2024-02-21T11:50:19;2.25;;;1.77;;
15408;SDS011;7803;48.130;13.788;2024-02-21T11:53:21;2.08;;;1.77;;
15408;SDS011;7803;48.130;13.788;2024-02-21T11:56:23;1.85;;;1.65;;
15408;SDS011;7803;48.130;13.788;2024-02-21T11:59:26;1.92;;;1.60;;
15408;SDS011;7803;48.130;13.788;2024-02-21T12:02:28;1.42;;;1.30;;
15408;SDS011;7803;48.130;13.788;2024-02-21T12:05:32;2.10;;;1.60;;
15408;SDS011;7803;48.130;13.788;2024-02-21T12:08:43;2.05;;;1.60;;
15408;SDS011;7803;48.130;13.788;2024-02-21T12:11:45;2.13;;;1.67;;
15408;SDS011;7803;48.130;13.788;2024-02-21T12:14:58;2.40;;;1.63;;
15408;SDS011;7803;48.130;13.788;2024-02-21T12:18:00;1.90;;;1.50;;
15408;SDS011;7803;48.130;13.788;2024-02-21T12:21:04;1.92;;;1.58;;
15408;SDS011;7803;48.130;13.788;2024-02-21T12:24:12;1.83;;;1.60;;
15408;SDS011;7803;48.130;13.788;2024-02-21T12:27:15;1.50;;;1.40;;
15408;SDS011;7803;48.130;13.788;2024-02-21T12:30:17;2.10;;;1.77;;
15408;SDS011;7803;48.130;13.788;2024-02-21T12:33:21;2.33;;;1.60;;
15408;SDS011;7803;48.130;13.788;2024-02-21T12:36:24;1.73;;;1.50;;
15408;SDS011;7803;48.130;13.788;2024-02-21T12:39:26;1.73;;;1.50;;
15408;SDS011;7803;48.130;13.788;2024-02-21T12:42:28;2.13;;;1.60;;
15408;SDS011;7803;48.130;13.788;2024-02-21T12:45:30;1.52;;;1.33;;
15408;SDS011;7803;48.130;13.788;2024-02-21T12:48:33;2.03;;;1.48;;
15408;SDS011;7803;48.130;13.788;2024-02-21T12:51:37;2.38;;;1.70;;
15408;SDS011;7803;48.130;13.788;2024-02-21T12:54:39;2.55;;;1.40;;
15408;SDS011;7803;48.130;13.788;2024-02-21T12:57:42;1.88;;;1.48;;
15408;SDS011;7803;48.130;13.788;2024-02-21T13:00:44;1.65;;;1.30;;
15408;SDS011;7803;48.130;13.788;2024-02-21T13:03:46;2.05;;;1.42;;
15408;SDS011;7803;48.130;13.788;2024-02-21T13:06:49;2.03;;;1.60;;
15408;SDS011;7803;48.130;13.788;2024-02-21T13:09:51;2.17;;;1.70;;
15408;SDS011;7803;48.130;13.788;2024-02-21T13:12:54;1.95;;;1.50;;
15408;SDS011;7803;48.130;13.788;2024-02-21T13:15:56;2.35;;;1.60;;
15408;SDS011;7803;48.130;13.788;2024-02-21T13:18:59;2.10;;;1.40;;
15408;SDS011;7803;48.130;13.788;2024-02-21T13:22:02;1.73;;;1.48;;
15408;SDS011;7803;48.130;13.788;2024-02-21T13:25:04;2.03;;;1.50;;
15408;SDS011;7803;48.130;13.788;2024-02-21T13:28:08;2.60;;;1.65;;
15408;SDS011;7803;48.130;13.788;2024-02-21T13:31:10;2.30;;;1.65;;
15408;SDS011;7803;48.130;13.788;2024-02-21T13:34:12;2.13;;;1.60;;
15408;SDS011;7803;48.130;13.788;2024-02-21T13:37:16;2.92;;;1.80;;
15408;SDS011;7803;48.130;13.788;2024-02-21T13:40:18;3.75;;;2.00;;
15408;SDS011;7803;48.130;13.788;2024-02-21T13:43:20;3.47;;;1.98;;
15408;SDS011;7803;48.130;13.788;2024-02-21T13:46:22;4.13;;;2.10;;
15408;SDS011;7803;48.130;13.788;2024-02-21T13:49:24;3.78;;;2.20;;
15408;SDS011;7803;48.130;13.788;2024-02-21T13:52:28;5.00;;;2.38;;
15408;SDS011;7803;48.130;13.788;2024-02-21T13:55:30;6.88;;;2.72;;
15408;SDS011;7803;48.130;13.788;2024-02-21T13:58:31;6.25;;;2.55;;
15408;SDS011;7803;48.130;13.788;2024-02-21T14:01:33;6.72;;;2.70;;
15408;SDS011;7803;48.130;13.788;2024-02-21T14:04:35;6.80;;;3.10;;
15408;SDS011;7803;48.130;13.788;2024-02-21T14:07:39;7.00;;;3.10;;
15408;SDS011;7803;48.130;13.788;2024-02-21T14:10:41;6.03;;;2.95;;
15408;SDS011;7803;48.130;13.788;2024-02-21T14:13:43;7.88;;;3.30;;
15408;SDS011;7803;48.130;13.788;2024-02-21T14:16:45;7.50;;;3.17;;
15408;SDS011;7803;48.130;13.788;2024-02-21T14:19:47;6.35;;;3.20;;
15408;SDS011;7803;48.130;13.788;2024-02-21T14:22:51;8.00;;;3.22;;
15408;SDS011;7803;48.130;13.788;2024-02-21T14:25:53;8.82;;;3.38;;
15408;SDS011;7803;48.130;13.788;2024-02-21T14:28:55;7.43;;;3.42;;
15408;SDS011;7803;48.130;13.788;2024-02-21T14:31:57;6.00;;;3.40;;
15408;SDS011;7803;48.130;13.788;2024-02-21T14:34:59;7.60;;;3.60;;
15408;SDS011;7803;48.130;13.788;2024-02-21T14:38:02;8.32;;;4.05;;
15408;SDS011;7803;48.130;13.788;2024-02-21T14:41:04;9.65;;;3.75;;
15408;SDS011;7803;48.130;13.788;2024-02-21T14:44:06;7.70;;;3.70;;
15408;SDS011;7803;48.130;13.788;2024-02-21T14:47:09;8.45;;;3.90;;
15408;SDS011;7803;48.130;13.788;2024-02-21T14:50:11;7.25;;;3.55;;
15408;SDS011;7803;48.130;13.788;2024-02-21T14:53:15;7.30;;;3.58;;
15408;SDS011;7803;48.130;13.788;2024-02-21T14:56:18;9.00;;;3.72;;
15408;SDS011;7803;48.130;13.788;2024-02-21T14:59:20;8.10;;;3.63;;
15408;SDS011;7803;48.130;13.788;2024-02-21T15:02:22;8.98;;;3.63;;
15408;SDS011;7803;48.130;13.788;2024-02-21T15:05:24;8.93;;;3.90;;
15408;SDS011;7803;48.130;13.788;2024-02-21T15:08:28;10.50;;;4.15;;
15408;SDS011;7803;48.130;13.788;2024-02-21T15:11:30;8.75;;;4.05;;
15408;SDS011;7803;48.130;13.788;2024-02-21T15:14:31;8.23;;;3.92;;
15408;SDS011;7803;48.130;13.788;2024-02-21T15:17:34;6.85;;;3.67;;
15408;SDS011;7803;48.130;13.788;2024-02-21T15:20:37;8.27;;;4.15;;
15408;SDS011;7803;48.130;13.788;2024-02-21T15:23:40;9.32;;;4.05;;
15408;SDS011;7803;48.130;13.788;2024-02-21T15:26:42;8.93;;;3.95;;
15408;SDS011;7803;48.130;13.788;2024-02-21T15:29:44;7.93;;;3.90;;
15408;SDS011;7803;48.130;13.788;2024-02-21T15:32:46;7.80;;;4.10;;
15408;SDS011;7803;48.130;13.788;2024-02-21T15:35:48;7.78;;;3.78;;
15408;SDS011;7803;48.130;13.788;2024-02-21T15:38:52;11.23;;;4.32;;
15408;SDS011;7803;48.130;13.788;2024-02-21T15:41:54;8.35;;;3.90;;
15408;SDS011;7803;48.130;13.788;2024-02-21T15:44:56;7.45;;;3.67;;
15408;SDS011;7803;48.130;13.788;2024-02-21T15:47:58;7.53;;;3.60;;
15408;SDS011;7803;48.130;13.788;2024-02-21T15:51:00;8.85;;;3.97;;
15408;SDS011;7803;48.130;13.788;2024-02-21T15:54:05;6.90;;;3.85;;
15408;SDS011;7803;48.130;13.788;2024-02-21T15:57:08;8.27;;;4.10;;
15408;SDS011;7803;48.130;13.788;2024-02-21T16:00:11;5.63;;;3.55;;
15408;SDS011;7803;48.130;13.788;2024-02-21T16:03:13;8.48;;;3.88;;
15408;SDS011;7803;48.130;13.788;2024-02-21T16:06:15;7.72;;;3.58;;
15408;SDS011;7803;48.130;13.788;2024-02-21T16:09:19;7.93;;;3.92;;
15408;SDS011;7803;48.130;13.788;2024-02-21T16:12:21;5.85;;;3.47;;
15408;SDS011;7803;48.130;13.788;2024-02-21T16:15:23;7.78;;;4.35;;
15408;SDS011;7803;48.130;13.788;2024-02-21T16:18:25;7.75;;;3.65;;
15408;SDS011;7803;48.130;13.788;2024-02-21T16:21:27;7.50;;;3.67;;
15408;SDS011;7803;48.130;13.788;2024-02-21T16:24:30;6.68;;;3.55;;
15408;SDS011;7803;48.130;13.788;2024-02-21T16:27:33;7.28;;;3.70;;
15408;SDS011;7803;48.130;13.788;2024-02-21T16:30:35;6.97;;;3.47;;
15408;SDS011;7803;48.130;13.788;2024-02-21T16:33:37;8.07;;;3.67;;
15408;SDS011;7803;48.130;13.788;2024-02-21T16:36:39;7.25;;;3.88;;
15408;SDS011;7803;48.130;13.788;2024-02-21T16:39:42;7.65;;;3.38;;
15408;SDS011;7803;48.130;13.788;2024-02-21T16:42:44;5.63;;;3.08;;
15408;SDS011;7803;48.130;13.788;2024-02-21T16:45:46;7.68;;;3.58;;
15408;SDS011;7803;48.130;13.788;2024-02-21T16:48:48;6.30;;;3.30;;
15408;SDS011;7803;48.130;13.788;2024-02-21T16:51:50;6.13;;;3.15;;
15408;SDS011;7803;48.130;13.788;2024-02-21T16:54:54;6.82;;;3.22;;
15408;SDS011;7803;48.130;13.788;2024-02-21T16:57:56;6.55;;;3.50;;
15408;SDS011;7803;48.130;13.788;2024-02-21T17:00:58;5.43;;;3.00;;
15408;SDS011;7803;48.130;13.788;2024-02-21T17:04:05;6.32;;;3.15;;
15408;SDS011;7803;48.130;13.788;2024-02-21T17:07:08;6.25;;;3.20;;
15408;SDS011;7803;48.130;13.788;2024-02-21T17:10:11;6.18;;;3.15;;
15408;SDS011;7803;48.130;13.788;2024-02-21T17:13:13;5.40;;;2.90;;
15408;SDS011;7803;48.130;13.788;2024-02-21T17:16:15;5.68;;;3.00;;
15408;SDS011;7803;48.130;13.788;2024-02-21T17:19:17;6.60;;;3.28;;
15408;SDS011;7803;48.130;13.788;2024-02-21T17:22:19;5.57;;;3.00;;
15408;SDS011;7803;48.130;13.788;2024-02-21T17:25:23;6.43;;;3.20;;
15408;SDS011;7803;48.130;13.788;2024-02-21T17:28:24;7.45;;;3.47;;
15408;SDS011;7803;48.130;13.788;2024-02-21T17:31:26;6.03;;;3.10;;
15408;SDS011;7803;48.130;13.788;2024-02-21T17:34:29;4.47;;;2.80;;
15408;SDS011;7803;48.130;13.788;2024-02-21T17:37:31;6.22;;;3.10;;
15408;SDS011;7803;48.130;13.788;2024-02-21T17:40:36;4.63;;;3.17;;
15408;SDS011;7803;48.130;13.788;2024-02-21T17:43:38;5.05;;;2.92;;
15408;SDS011;7803;48.130;13.788;2024-02-21T17:46:40;5.00;;;2.97;;
15408;SDS011;7803;48.130;13.788;2024-02-21T17:49:43;5.60;;;3.00;;
15408;SDS011;7803;48.130;13.788;2024-02-21T17:52:46;5.30;;;2.78;;
15408;SDS011;7803;48.130;13.788;2024-02-21T17:55:49;5.95;;;3.17;;
15408;SDS011;7803;48.130;13.788;2024-02-21T17:58:51;4.80;;;2.92;;
15408;SDS011;7803;48.130;13.788;2024-02-21T18:01:53;4.90;;;3.08;;
15408;SDS011;7803;48.130;13.788;2024-02-21T18:04:55;4.40;;;2.80;;
15408;SDS011;7803;48.130;13.788;2024-02-21T18:07:57;4.78;;;2.78;;
15408;SDS011;7803;48.130;13.788;2024-02-21T18:11:00;4.10;;;2.80;;
15408;SDS011;7803;48.130;13.788;2024-02-21T18:14:03;4.75;;;3.00;;
15408;SDS011;7803;48.130;13.788;2024-02-21T18:17:07;4.00;;;2.67;;
15408;SDS011;7803;48.130;13.788;2024-02-21T18:20:10;5.57;;;3.00;;
15408;SDS011;7803;48.130;13.788;2024-02-21T18:23:12;5.13;;;2.67;;